Startpagina
METAR-TAF:

METAR-TAF

Vliegvelden :

Tunis, Tunesië

Luchthaven Tunis-Carthage

breedte: 36-50N, lengte: 010-14E, hoogte: 3 m

Actueel weer

Dit bericht is 18 minuten geleden gemaakt, om 21:00 UTC
Wind 5 kt uit het oostzuidoosten, variërend tussen het oosten en het zuidzuidoosten
Temperatuur 21°C
Vochtigheid 56%
Druk 1017 hPa
Zicht 10 km of meer
Weinig wolken op 3300 ft

METAR: DTTA 222100Z 12005KT 080V150 9999 FEW033 21/12 Q1017 NOSIG

Tijdstip: 22:18 (21:18 UTC)

Verwachting

Dit bericht is 4 uur en het 18 minuten geleden gemaakt, om 17:00 UTC
Verwachting geldig van 22 om 18 UTC tot 23 om 18 UTC
Wind 10 kt uit het noordoosten
Zicht 10 km of meer
Weinig wolken op 3300 ft

TAF: DTTA 221700Z 2218/2318 04010KT 9999 FEW033

Waarnemingen en weersverwachtingen van meer dan 4000 vliegvelden (METAR en TAF).

De beschikbare stations zijn de gele en rode punten op de kaart.

Ga met uw muis naar het station om de naam te zien.

Klik dan om waarnemingen en weersverwachtingen te zien.

kaart wijzigen: klik op de groene knoppen met een zwart kruis om in te zoomen, op de groene knop met een streepje om uit te zoomen of op de groene pijlen voor aangrenzende kaarten.


METAR-TAF: